createdAt,value
2023-03-18T00:01:07.212Z,4.75
2023-03-18T00:03:37.587Z,4.45
2023-03-18T00:06:16.561Z,4.35
2023-03-18T00:08:48.313Z,4.65
2023-03-18T00:11:21.631Z,4.05
2023-03-18T00:13:49.330Z,4.18
2023-03-18T00:16:16.639Z,4.30
2023-03-18T00:18:43.901Z,4.60
2023-03-18T00:21:11.034Z,4.80
2023-03-18T00:23:38.609Z,4.43
2023-03-18T00:26:07.013Z,4.65
2023-03-18T00:28:33.731Z,4.95
2023-03-18T00:31:09.334Z,4.72
2023-03-18T00:33:40.038Z,3.83
2023-03-18T00:36:12.894Z,4.80
2023-03-18T00:38:45.855Z,4.32
2023-03-18T00:41:15.747Z,4.63
2023-03-18T00:43:52.587Z,5.25
2023-03-18T00:46:27.467Z,4.70
2023-03-18T00:49:00.300Z,4.60
2023-03-18T00:51:31.438Z,4.60
2023-03-18T00:54:01.934Z,4.40
2023-03-18T00:56:32.123Z,3.97
2023-03-18T00:59:00.530Z,4.70
2023-03-18T01:01:30.484Z,4.38
2023-03-18T01:04:01.960Z,4.00
2023-03-18T01:06:32.490Z,4.10
2023-03-18T01:09:01.364Z,4.57
2023-03-18T01:11:29.835Z,4.75
2023-03-18T01:13:57.743Z,4.90
2023-03-18T01:16:24.794Z,4.38
2023-03-18T01:18:52.421Z,4.63
2023-03-18T01:21:19.376Z,4.68
2023-03-18T01:23:46.977Z,4.38
2023-03-18T01:26:15.204Z,4.35
2023-03-18T01:28:42.361Z,4.57
2023-03-18T01:31:09.390Z,4.45
2023-03-18T01:33:36.773Z,4.88
2023-03-18T01:36:05.426Z,4.00
2023-03-18T01:38:32.514Z,4.07
2023-03-18T01:41:01.434Z,4.38
2023-03-18T01:43:33.932Z,4.15
2023-03-18T01:46:22.250Z,4.03
2023-03-18T01:48:51.874Z,3.55
2023-03-18T01:51:20.476Z,3.88
2023-03-18T01:53:50.546Z,4.18
2023-03-18T01:56:18.679Z,3.83
2023-03-18T01:58:52.246Z,4.03
2023-03-18T02:01:49.956Z,3.38
2023-03-18T02:04:18.714Z,4.20
2023-03-18T02:06:45.715Z,3.85
2023-03-18T02:09:13.418Z,3.85
2023-03-18T02:11:46.936Z,4.03
2023-03-18T02:14:15.639Z,3.63
2023-03-18T02:16:59.305Z,4.22
2023-03-18T02:20:14.787Z,4.22
2023-03-18T02:22:49.576Z,3.95
2023-03-18T02:25:26.152Z,3.50
2023-03-18T02:28:04.042Z,4.35
2023-03-18T02:30:48.382Z,4.03
2023-03-18T02:33:19.088Z,4.05
2023-03-18T02:35:52.435Z,3.95
2023-03-18T02:38:19.587Z,3.75
2023-03-18T02:40:46.474Z,4.00
2023-03-18T02:43:32.092Z,3.85
2023-03-18T02:46:23.390Z,3.78
2023-03-18T02:48:51.397Z,4.00
2023-03-18T02:51:19.561Z,3.92
2023-03-18T02:53:47.455Z,4.05
2023-03-18T02:56:14.774Z,4.28
2023-03-18T02:58:41.960Z,3.85
2023-03-18T03:01:09.925Z,3.75
2023-03-18T03:03:37.602Z,3.70
2023-03-18T03:06:04.838Z,4.65
2023-03-18T03:08:31.882Z,4.45
2023-03-18T03:10:58.724Z,4.72
2023-03-18T03:13:25.653Z,4.25
2023-03-18T03:15:52.623Z,4.38
2023-03-18T03:18:19.615Z,4.50
2023-03-18T03:20:46.665Z,4.40
2023-03-18T03:23:16.801Z,4.43
2023-03-18T03:25:44.905Z,4.50
2023-03-18T03:28:14.211Z,4.50
2023-03-18T03:30:42.253Z,4.32
2023-03-18T03:33:11.136Z,3.90
2023-03-18T03:35:39.039Z,4.50
2023-03-18T03:38:06.435Z,4.25
2023-03-18T03:40:33.915Z,3.80
2023-03-18T03:43:00.891Z,4.43
2023-03-18T03:45:28.530Z,4.20
2023-03-18T03:47:55.338Z,4.47
2023-03-18T03:50:22.194Z,4.32
2023-03-18T03:52:49.394Z,4.53
2023-03-18T03:55:21.328Z,4.50
2023-03-18T03:57:48.325Z,4.72
2023-03-18T04:00:20.498Z,4.90
2023-03-18T04:02:50.036Z,4.68
2023-03-18T04:05:19.620Z,4.65
2023-03-18T04:07:47.835Z,4.10
2023-03-18T04:10:18.706Z,4.43
2023-03-18T04:12:46.094Z,4.18
2023-03-18T04:15:16.365Z,4.07
2023-03-18T04:17:44.534Z,4.18
2023-03-18T04:20:12.855Z,4.68
2023-03-18T04:22:39.702Z,4.50
2023-03-18T04:25:06.842Z,4.45
2023-03-18T04:27:33.844Z,4.05
2023-03-18T04:30:00.721Z,4.10
2023-03-18T04:32:27.529Z,4.35
2023-03-18T04:34:54.261Z,4.43
2023-03-18T04:37:21.038Z,4.32
2023-03-18T04:39:49.732Z,4.85
2023-03-18T04:42:17.901Z,4.38
2023-03-18T04:44:45.362Z,4.40
2023-03-18T04:47:13.619Z,3.60
2023-03-18T04:49:40.814Z,4.93
2023-03-18T04:52:08.111Z,4.68
2023-03-18T04:54:37.201Z,4.30
2023-03-18T04:57:05.832Z,4.95
2023-03-18T04:59:32.653Z,3.97
2023-03-18T05:01:59.757Z,4.40
2023-03-18T05:04:26.496Z,3.95
2023-03-18T05:06:53.325Z,3.55
2023-03-18T05:09:20.085Z,4.30
2023-03-18T05:11:46.835Z,4.28
2023-03-18T05:14:13.820Z,3.60
2023-03-18T05:16:40.779Z,4.40
2023-03-18T05:19:08.528Z,4.82
2023-03-18T05:21:36.433Z,4.72
2023-03-18T05:24:03.527Z,4.80
2023-03-18T05:26:30.622Z,4.60
2023-03-18T05:28:57.403Z,4.07
2023-03-18T05:31:24.777Z,3.97
2023-03-18T05:33:51.688Z,4.30
2023-03-18T05:36:19.179Z,4.28
2023-03-18T05:38:46.073Z,4.85
2023-03-18T05:41:12.868Z,4.90
2023-03-18T05:43:39.570Z,4.22
2023-03-18T05:46:07.760Z,4.63
2023-03-18T05:48:34.582Z,4.22
2023-03-18T05:51:01.263Z,4.25
2023-03-18T05:53:29.217Z,4.55
2023-03-18T05:55:56.407Z,4.43
2023-03-18T05:58:24.051Z,4.35
2023-03-18T06:00:50.835Z,4.75
2023-03-18T06:03:18.265Z,3.90
2023-03-18T06:05:45.054Z,4.78
2023-03-18T06:08:11.880Z,4.18
2023-03-18T06:10:38.875Z,5.22
2023-03-18T06:13:05.841Z,4.13
2023-03-18T06:15:33.595Z,4.30
2023-03-18T06:18:00.504Z,4.30
2023-03-18T06:20:27.263Z,4.63
2023-03-18T06:22:54.039Z,4.45
2023-03-18T06:25:21.820Z,4.63
2023-03-18T06:27:50.413Z,4.38
2023-03-18T06:30:18.937Z,4.85
2023-03-18T06:32:45.763Z,4.68
2023-03-18T06:35:14.667Z,4.63
2023-03-18T06:37:42.710Z,5.15
2023-03-18T06:40:12.196Z,4.85
2023-03-18T06:42:39.336Z,3.90
2023-03-18T06:45:07.602Z,5.00
2023-03-18T06:47:34.438Z,4.93
2023-03-18T06:50:01.621Z,4.72
2023-03-18T06:52:28.808Z,4.90
2023-03-18T06:54:55.560Z,6.05
2023-03-18T06:57:22.353Z,6.78
2023-03-18T06:59:49.381Z,6.60
2023-03-18T07:02:16.278Z,5.63
2023-03-18T07:04:43.128Z,5.30
2023-03-18T07:07:10.358Z,5.50
2023-03-18T07:09:37.168Z,6.97
2023-03-18T07:12:04.225Z,6.22
2023-03-18T07:14:30.985Z,5.80
2023-03-18T07:16:57.920Z,5.10
2023-03-18T07:19:25.133Z,4.85
2023-03-18T07:21:52.230Z,5.32
2023-03-18T07:24:21.215Z,5.47
2023-03-18T07:26:50.228Z,5.13
2023-03-18T07:29:18.568Z,4.90
2023-03-18T07:31:46.235Z,4.75
2023-03-18T07:34:15.028Z,4.55
2023-03-18T07:36:42.609Z,4.75
2023-03-18T07:39:10.228Z,4.90
2023-03-18T07:41:37.958Z,4.70
2023-03-18T07:44:07.708Z,4.35
2023-03-18T07:46:34.528Z,4.80
2023-03-18T07:49:01.923Z,5.18
2023-03-18T07:51:28.835Z,5.05
2023-03-18T07:53:55.576Z,4.65
2023-03-18T07:56:22.373Z,4.47
2023-03-18T07:58:49.732Z,4.50
2023-03-18T08:01:18.443Z,4.63
2023-03-18T08:03:46.883Z,4.60
2023-03-18T08:06:15.550Z,4.60
2023-03-18T08:08:43.402Z,5.35
2023-03-18T08:11:10.687Z,4.20
2023-03-18T08:13:39.543Z,4.57
2023-03-18T08:16:07.007Z,4.03
2023-03-18T08:18:34.034Z,4.50
2023-03-18T08:21:01.004Z,3.90
2023-03-18T08:23:27.936Z,4.78
2023-03-18T08:25:54.705Z,4.35
2023-03-18T08:28:21.625Z,4.45
2023-03-18T08:30:48.845Z,4.65
2023-03-18T08:33:16.000Z,4.22
2023-03-18T08:35:42.817Z,3.75
2023-03-18T08:38:09.875Z,4.10
2023-03-18T08:40:36.609Z,3.72
2023-03-18T08:43:03.602Z,4.82
2023-03-18T08:45:30.712Z,4.43
2023-03-18T08:47:57.761Z,4.15
2023-03-18T08:50:28.483Z,4.32
2023-03-18T08:53:00.458Z,3.65
2023-03-18T08:55:35.394Z,4.47
2023-03-18T08:58:05.768Z,3.72
2023-03-18T09:00:37.492Z,4.15
2023-03-18T09:03:05.520Z,4.53
2023-03-18T09:05:33.087Z,4.03
2023-03-18T09:08:00.389Z,4.15
2023-03-18T09:10:27.968Z,4.10
2023-03-18T09:12:54.719Z,3.92
2023-03-18T09:15:22.417Z,4.15
2023-03-18T09:18:08.020Z,4.45
2023-03-18T09:20:36.268Z,4.60
2023-03-18T09:23:03.941Z,3.78
2023-03-18T09:25:30.934Z,4.47
2023-03-18T09:27:57.938Z,4.22
2023-03-18T09:30:26.453Z,4.82
2023-03-18T09:32:54.173Z,4.50
2023-03-18T09:35:21.140Z,4.00
2023-03-18T09:37:48.396Z,4.25
2023-03-18T09:40:30.704Z,4.00
2023-03-18T09:43:53.360Z,4.07
2023-03-18T09:46:20.164Z,3.88
2023-03-18T09:49:05.081Z,3.40
2023-03-18T09:51:50.729Z,3.97
2023-03-18T09:54:29.353Z,4.10
2023-03-18T09:56:56.171Z,4.07
2023-03-18T09:59:35.935Z,3.97
2023-03-18T10:02:06.013Z,3.92
2023-03-18T10:04:52.282Z,3.75
2023-03-18T10:07:25.591Z,4.00
2023-03-18T10:09:58.960Z,3.97
2023-03-18T10:12:31.713Z,4.47
2023-03-18T10:15:21.703Z,4.07
2023-03-18T10:18:00.101Z,4.20
2023-03-18T10:21:02.739Z,4.55
2023-03-18T10:23:55.294Z,4.30
2023-03-18T10:26:50.201Z,4.43
2023-03-18T10:30:16.460Z,3.65
2023-03-18T10:33:09.823Z,3.70
2023-03-18T10:35:54.875Z,3.85
2023-03-18T10:38:34.395Z,4.03
2023-03-18T10:41:04.090Z,3.75
2023-03-18T10:43:33.613Z,3.58
2023-03-18T10:46:06.072Z,3.72
2023-03-18T10:48:52.444Z,3.75
2023-03-18T10:51:46.118Z,3.80
2023-03-18T10:54:27.171Z,3.70
2023-03-18T10:56:55.132Z,3.47
2023-03-18T10:59:24.734Z,4.13
2023-03-18T11:02:02.897Z,3.33
2023-03-18T11:04:42.328Z,4.00
2023-03-18T11:07:19.472Z,3.63
2023-03-18T11:09:47.039Z,3.97
2023-03-18T11:12:23.671Z,3.80
2023-03-18T11:14:51.451Z,3.65
2023-03-18T11:17:35.304Z,3.53
2023-03-18T11:20:20.998Z,4.40
2023-03-18T11:22:52.275Z,3.85
2023-03-18T11:25:26.744Z,3.90
2023-03-18T11:28:03.722Z,3.97
2023-03-18T11:30:45.470Z,3.55
2023-03-18T11:33:12.331Z,3.83
2023-03-18T11:36:04.771Z,3.55
2023-03-18T11:38:35.887Z,3.47
2023-03-18T11:41:18.022Z,3.85
2023-03-18T11:44:01.959Z,3.55
2023-03-18T11:46:40.679Z,3.05
2023-03-18T11:49:17.804Z,3.03
2023-03-18T11:52:24.369Z,3.28
2023-03-18T11:55:46.788Z,3.28
2023-03-18T11:58:29.346Z,3.20
2023-03-18T12:01:19.163Z,3.22
2023-03-18T12:04:05.984Z,3.22
2023-03-18T12:06:53.959Z,4.78
2023-03-18T12:09:38.517Z,3.53
2023-03-18T12:12:54.961Z,3.28
2023-03-18T12:16:03.833Z,3.20
2023-03-18T12:19:00.675Z,3.15
2023-03-18T12:21:59.686Z,2.67
2023-03-18T12:25:21.952Z,2.80
2023-03-18T12:28:17.795Z,3.67
2023-03-18T12:31:28.577Z,2.88
2023-03-18T12:34:01.416Z,3.30
2023-03-18T12:36:54.244Z,3.27
2023-03-18T12:40:01.740Z,3.10
2023-03-18T12:42:40.156Z,2.97
2023-03-18T12:45:16.066Z,2.70
2023-03-18T12:48:05.205Z,3.08
2023-03-18T12:50:42.984Z,3.00
2023-03-18T12:53:22.429Z,3.20
2023-03-18T12:55:59.446Z,3.20
2023-03-18T12:58:32.124Z,2.90
2023-03-18T13:01:41.086Z,3.42
2023-03-18T13:04:18.320Z,3.42
2023-03-18T13:07:16.427Z,3.35
2023-03-18T13:09:52.667Z,2.88
2023-03-18T13:12:35.275Z,2.90
2023-03-18T13:15:26.826Z,3.50
2023-03-18T13:18:03.005Z,2.78
2023-03-18T13:20:34.563Z,3.15
2023-03-18T13:24:11.548Z,3.50
2023-03-18T13:27:12.460Z,3.35
2023-03-18T13:30:10.088Z,3.05
2023-03-18T13:33:06.619Z,2.40
2023-03-18T13:36:08.737Z,2.90
2023-03-18T13:38:52.136Z,2.67
2023-03-18T13:41:54.833Z,2.80
2023-03-18T13:44:55.987Z,2.67
2023-03-18T13:47:28.976Z,2.20
2023-03-18T13:50:30.062Z,2.67
2023-03-18T13:53:00.072Z,2.58
2023-03-18T13:55:39.978Z,2.90
2023-03-18T13:58:16.270Z,2.80
2023-03-18T14:00:46.443Z,2.80
2023-03-18T14:03:35.495Z,2.63
2023-03-18T14:06:05.274Z,2.88
2023-03-18T14:08:44.262Z,3.10
2023-03-18T14:11:17.145Z,2.80
2023-03-18T14:14:00.635Z,3.42
2023-03-18T14:16:38.170Z,2.90
2023-03-18T14:19:24.189Z,2.90
2023-03-18T14:22:36.432Z,2.60
2023-03-18T14:25:18.267Z,3.20
2023-03-18T14:28:09.895Z,2.67
2023-03-18T14:30:37.126Z,3.42
2023-03-18T14:33:20.702Z,3.70
2023-03-18T14:35:49.827Z,3.58
2023-03-18T14:38:24.928Z,3.30
2023-03-18T14:40:57.870Z,3.20
2023-03-18T14:43:37.274Z,2.90
2023-03-18T14:46:14.682Z,2.70
2023-03-18T14:48:41.715Z,3.20
2023-03-18T14:51:21.868Z,3.03
2023-03-18T14:54:15.440Z,2.83
2023-03-18T14:56:53.578Z,2.78
2023-03-18T14:59:25.598Z,2.60
2023-03-18T15:01:54.028Z,2.90
2023-03-18T15:04:25.701Z,2.72
2023-03-18T15:06:56.545Z,2.83
2023-03-18T15:09:31.069Z,3.10
2023-03-18T15:11:58.251Z,2.90
2023-03-18T15:14:30.070Z,2.92
2023-03-18T15:17:02.076Z,3.17
2023-03-18T15:19:29.819Z,3.25
2023-03-18T15:22:06.155Z,3.05
2023-03-18T15:24:34.220Z,3.25
2023-03-18T15:27:14.731Z,4.05
2023-03-18T15:29:52.940Z,3.13
2023-03-18T15:32:44.300Z,3.30
2023-03-18T15:35:11.062Z,3.00
2023-03-18T15:37:42.550Z,2.70
2023-03-18T15:40:22.322Z,3.05
2023-03-18T15:42:50.573Z,2.50
2023-03-18T15:45:27.108Z,2.10
2023-03-18T15:47:54.458Z,2.97
2023-03-18T15:50:31.730Z,2.83
2023-03-18T15:53:06.283Z,2.78
2023-03-18T15:55:58.010Z,2.60
2023-03-18T15:58:36.536Z,2.92
2023-03-18T16:01:07.129Z,3.05
2023-03-18T16:03:35.205Z,3.30
2023-03-18T16:06:03.095Z,3.95
2023-03-18T16:08:30.520Z,3.38
2023-03-18T16:11:01.914Z,2.95
2023-03-18T16:13:33.442Z,2.97
2023-03-18T16:16:01.173Z,3.10
2023-03-18T16:18:28.455Z,3.03
2023-03-18T16:20:56.583Z,2.67
2023-03-18T16:23:24.016Z,2.75
2023-03-18T16:25:53.136Z,2.95
2023-03-18T16:28:26.495Z,2.40
2023-03-18T16:30:55.967Z,2.55
2023-03-18T16:33:23.630Z,2.60
2023-03-18T16:35:59.035Z,2.60
2023-03-18T16:38:28.530Z,2.30
2023-03-18T16:40:56.038Z,2.53
2023-03-18T16:43:28.198Z,2.03
2023-03-18T16:46:04.071Z,2.88
2023-03-18T16:48:31.243Z,2.58
2023-03-18T16:51:01.922Z,2.60
2023-03-18T16:53:31.516Z,2.60
2023-03-18T16:56:16.369Z,2.70
2023-03-18T16:58:44.657Z,2.70
2023-03-18T17:01:16.986Z,3.10
2023-03-18T17:03:44.336Z,3.33
2023-03-18T17:06:12.677Z,2.55
2023-03-18T17:08:40.031Z,3.15
2023-03-18T17:11:07.485Z,2.72
2023-03-18T17:13:37.927Z,3.40
2023-03-18T17:16:05.073Z,3.10
2023-03-18T17:18:32.021Z,3.80
2023-03-18T17:20:59.786Z,3.45
2023-03-18T17:23:28.703Z,3.90
2023-03-18T17:25:59.671Z,3.78
2023-03-18T17:28:39.200Z,4.00
2023-03-18T17:31:06.715Z,4.55
2023-03-18T17:33:35.985Z,4.32
2023-03-18T17:36:04.824Z,4.75
2023-03-18T17:38:34.870Z,4.65
2023-03-18T17:41:13.856Z,3.95
2023-03-18T17:43:40.767Z,4.13
2023-03-18T17:46:07.988Z,3.95
2023-03-18T17:48:37.599Z,4.22
2023-03-18T17:51:24.717Z,4.55
2023-03-18T17:53:59.526Z,4.82
2023-03-18T17:56:27.877Z,5.05
2023-03-18T17:58:55.131Z,4.53
2023-03-18T18:01:28.485Z,4.90
2023-03-18T18:03:58.163Z,5.85
2023-03-18T18:06:30.656Z,5.25
2023-03-18T18:09:00.364Z,5.30
2023-03-18T18:11:35.313Z,4.50
2023-03-18T18:14:26.759Z,4.88
2023-03-18T18:16:59.451Z,4.65
2023-03-18T18:19:27.029Z,4.75
2023-03-18T18:21:53.825Z,4.38
2023-03-18T18:24:30.565Z,4.90
2023-03-18T18:26:57.677Z,5.22
2023-03-18T18:29:33.238Z,5.75
2023-03-18T18:32:02.298Z,5.28
2023-03-18T18:34:29.076Z,4.30
2023-03-18T18:36:56.562Z,4.60
2023-03-18T18:39:23.356Z,4.53
2023-03-18T18:41:50.146Z,4.78
2023-03-18T18:44:16.914Z,4.40
2023-03-18T18:46:43.789Z,3.97
2023-03-18T18:49:22.634Z,4.32
2023-03-18T18:51:56.009Z,4.32
2023-03-18T18:54:24.531Z,4.70
2023-03-18T18:56:52.160Z,4.47
2023-03-18T18:59:37.532Z,4.15
2023-03-18T19:02:28.190Z,4.65
2023-03-18T19:04:54.930Z,5.00
2023-03-18T19:07:24.683Z,5.63
2023-03-18T19:09:51.420Z,5.80
2023-03-18T19:12:19.053Z,5.82
2023-03-18T19:14:47.013Z,6.28
2023-03-18T19:17:21.412Z,6.85
2023-03-18T19:19:50.054Z,7.00
2023-03-18T19:22:21.018Z,6.40
2023-03-18T19:24:49.987Z,6.38
2023-03-18T19:27:27.759Z,7.25
2023-03-18T19:29:58.873Z,7.15
2023-03-18T19:32:27.021Z,6.57
2023-03-18T19:34:54.827Z,6.55
2023-03-18T19:37:32.285Z,6.22
2023-03-18T19:40:02.291Z,7.50
2023-03-18T19:42:29.691Z,7.45
2023-03-18T19:44:56.630Z,8.63
2023-03-18T19:47:28.034Z,7.68
2023-03-18T19:49:55.746Z,8.25
2023-03-18T19:52:27.360Z,8.80
2023-03-18T19:54:55.130Z,8.15
2023-03-18T19:57:29.628Z,8.57
2023-03-18T19:59:59.213Z,8.88
2023-03-18T20:02:33.858Z,7.53
2023-03-18T20:05:14.265Z,7.30
2023-03-18T20:07:41.023Z,7.45
2023-03-18T20:10:11.166Z,7.70
2023-03-18T20:12:42.018Z,7.97
2023-03-18T20:15:20.098Z,7.22
2023-03-18T20:17:49.358Z,6.97
2023-03-18T20:20:23.855Z,6.82
2023-03-18T20:22:59.511Z,6.90
2023-03-18T20:25:36.179Z,6.68
2023-03-18T20:28:14.219Z,6.28
2023-03-18T20:30:41.361Z,6.53
2023-03-18T20:33:08.877Z,5.97
2023-03-18T20:35:42.898Z,6.60
2023-03-18T20:38:32.712Z,5.53
2023-03-18T20:41:00.436Z,6.43
2023-03-18T20:43:28.990Z,6.95
2023-03-18T20:45:58.766Z,6.65
2023-03-18T20:48:25.615Z,5.38
2023-03-18T20:50:53.077Z,6.78
2023-03-18T20:53:24.653Z,5.65
2023-03-18T20:55:52.275Z,5.88
2023-03-18T20:58:24.439Z,6.10
2023-03-18T21:00:53.095Z,5.05
2023-03-18T21:03:33.419Z,5.95
2023-03-18T21:06:03.746Z,5.32
2023-03-18T21:08:31.687Z,5.72
2023-03-18T21:11:01.818Z,5.50
2023-03-18T21:13:39.051Z,5.78
2023-03-18T21:16:13.738Z,5.70
2023-03-18T21:18:45.441Z,5.10
2023-03-18T21:21:32.835Z,5.78
2023-03-18T21:23:59.822Z,6.30
2023-03-18T21:26:26.959Z,6.97
2023-03-18T21:28:53.982Z,6.20
2023-03-18T21:31:33.201Z,6.72
2023-03-18T21:34:01.064Z,6.10
2023-03-18T21:36:27.933Z,6.45
2023-03-18T21:38:54.754Z,6.28
2023-03-18T21:41:27.254Z,6.30
2023-03-18T21:43:54.171Z,6.00
2023-03-18T21:46:24.623Z,6.70
2023-03-18T21:48:52.184Z,6.15
2023-03-18T21:51:41.175Z,6.68
2023-03-18T21:54:25.952Z,6.70
2023-03-18T21:56:52.751Z,6.38
2023-03-18T21:59:19.513Z,6.05
2023-03-18T22:01:46.526Z,7.38
2023-03-18T22:04:13.487Z,6.57
2023-03-18T22:06:40.263Z,6.72
2023-03-18T22:09:07.496Z,7.47
2023-03-18T22:11:34.312Z,7.07
2023-03-18T22:14:01.101Z,6.95
2023-03-18T22:16:27.927Z,7.30
2023-03-18T22:18:54.713Z,6.85
2023-03-18T22:21:27.390Z,7.25
2023-03-18T22:23:54.802Z,7.35
2023-03-18T22:26:22.009Z,5.55
2023-03-18T22:28:50.589Z,6.25
2023-03-18T22:31:26.676Z,6.57
2023-03-18T22:33:54.486Z,6.43
2023-03-18T22:36:22.031Z,6.25
2023-03-18T22:38:49.984Z,6.68
2023-03-18T22:41:22.127Z,6.43
2023-03-18T22:43:50.150Z,6.65
2023-03-18T22:46:17.429Z,7.03
2023-03-18T22:48:44.461Z,6.57
2023-03-18T22:51:23.758Z,6.88
2023-03-18T22:53:53.487Z,6.60
2023-03-18T22:56:22.237Z,6.90
2023-03-18T22:58:49.618Z,6.75
2023-03-18T23:01:19.744Z,6.50
2023-03-18T23:03:47.754Z,6.60
2023-03-18T23:06:21.120Z,6.85
2023-03-18T23:08:48.076Z,6.90
2023-03-18T23:11:16.845Z,7.63
2023-03-18T23:13:48.145Z,7.93
2023-03-18T23:16:20.589Z,9.57
2023-03-18T23:18:48.085Z,8.43
2023-03-18T23:21:23.584Z,8.32
2023-03-18T23:23:52.501Z,7.43
2023-03-18T23:26:20.418Z,7.72
2023-03-18T23:28:48.755Z,7.35
2023-03-18T23:31:16.600Z,7.15
2023-03-18T23:33:43.604Z,6.60
2023-03-18T23:36:10.818Z,6.90
2023-03-18T23:38:38.062Z,6.72
2023-03-18T23:41:05.933Z,6.85
2023-03-18T23:43:32.799Z,6.60
2023-03-18T23:46:00.413Z,6.78
2023-03-18T23:48:27.316Z,6.72
2023-03-18T23:50:54.122Z,6.63
2023-03-18T23:53:20.996Z,6.88
2023-03-18T23:55:49.262Z,7.50
2023-03-18T23:58:16.565Z,7.18
